Time,TemperatureF,DewpointF,PressureIn,WindDirection,WindDirectionDegrees,WindSpeedMPH,WindSpeedGustMPH,Humidity,HourlyPrecipIn,Conditions,Clouds,dailyrainin,SolarRadiationWatts/m^2,SoftwareType,DateUTC
2013-01-13 00:11:00,61.1,56.0,30.08,ESE,109,0.0,0.0,84,0.00,,,0.00,0,weatherlink.com 1.10,2013-01-13 05:11:00,
2013-01-13 00:26:00,60.9,56.0,30.08,ESE,109,0.0,0.0,85,0.00,,,0.00,0,weatherlink.com 1.10,2013-01-13 05:26:00,
2013-01-13 00:41:00,61.3,57.0,30.08,ESE,107,0.0,2.0,85,0.00,,,0.00,0,weatherlink.com 1.10,2013-01-13 05:41:00,
2013-01-13 00:56:00,61.8,57.0,30.08,SE,132,0.0,1.0,84,0.00,,,0.00,0,weatherlink.com 1.10,2013-01-13 05:56:00,
2013-01-13 01:11:00,62.1,57.0,30.07,ESE,114,0.0,0.0,84,0.00,,,0.00,0,weatherlink.com 1.10,2013-01-13 06:11:00,
2013-01-13 01:26:00,62.2,57.0,30.07,SE,140,0.0,0.0,84,0.00,,,0.00,0,weatherlink.com 1.10,2013-01-13 06:26:00,
2013-01-13 01:41:00,62.1,57.0,30.07,SSE,151,0.0,1.0,84,0.00,,,0.00,0,weatherlink.com 1.10,2013-01-13 06:41:00,
2013-01-13 01:56:00,62.0,57.0,30.07,SSE,165,0.0,2.0,84,0.00,,,0.00,0,weatherlink.com 1.10,2013-01-13 06:56:00,
2013-01-13 02:11:00,61.9,57.0,30.07,East,99,0.0,2.0,85,0.00,,,0.00,0,weatherlink.com 1.10,2013-01-13 07:11:00,
2013-01-13 02:26:00,61.9,57.0,30.07,East,99,0.0,0.0,85,0.00,,,0.00,0,weatherlink.com 1.10,2013-01-13 07:26:00,
2013-01-13 02:41:00,61.7,57.0,30.06,East,99,0.0,0.0,85,0.00,,,0.00,0,weatherlink.com 1.10,2013-01-13 07:41:00,
2013-01-13 02:56:00,61.4,57.0,30.06,East,98,0.0,0.0,86,0.00,,,0.00,0,weatherlink.com 1.10,2013-01-13 07:56:00,
2013-01-13 03:11:00,61.3,57.0,30.06,South,182,0.0,0.0,87,0.00,,,0.00,0,weatherlink.com 1.10,2013-01-13 08:11:00,
2013-01-13 03:26:00,61.4,58.0,30.06,South,169,0.0,2.0,87,0.00,,,0.00,0,weatherlink.com 1.10,2013-01-13 08:26:00,
2013-01-13 03:41:00,61.9,58.0,30.06,SE,136,0.0,3.0,88,0.00,,,0.00,0,weatherlink.com 1.10,2013-01-13 08:41:00,
2013-01-13 03:56:00,62.2,58.0,30.06,SE,136,0.0,0.0,87,0.00,,,0.00,0,weatherlink.com 1.10,2013-01-13 08:56:00,
2013-01-13 04:11:00,62.5,59.0,30.05,SSE,162,0.0,1.0,87,0.00,,,0.00,0,weatherlink.com 1.10,2013-01-13 09:11:00,
2013-01-13 04:26:00,62.7,59.0,30.05,SSE,166,0.0,1.0,87,0.00,,,0.00,0,weatherlink.com 1.10,2013-01-13 09:26:00,
2013-01-13 04:41:00,62.7,59.0,30.04,South,186,0.0,2.0,87,0.00,,,0.00,0,weatherlink.com 1.10,2013-01-13 09:41:00,
2013-01-13 04:56:00,62.6,59.0,30.04,ESE,121,0.0,0.0,87,0.00,,,0.00,0,weatherlink.com 1.10,2013-01-13 09:56:00,
2013-01-13 05:11:00,62.4,59.0,30.05,ESE,121,0.0,0.0,87,0.00,,,0.00,0,weatherlink.com 1.10,2013-01-13 10:11:00,
2013-01-13 05:26:00,62.1,58.0,30.05,ESE,121,0.0,0.0,87,0.00,,,0.00,0,weatherlink.com 1.10,2013-01-13 10:26:00,
2013-01-13 05:41:00,62.0,59.0,30.06,ESE,117,0.0,1.0,88,0.00,,,0.00,0,weatherlink.com 1.10,2013-01-13 10:41:00,
2013-01-13 05:56:00,61.9,58.0,30.05,ESE,103,0.0,0.0,88,0.00,,,0.00,0,weatherlink.com 1.10,2013-01-13 10:56:00,
2013-01-13 06:11:00,62.0,59.0,30.06,ESE,105,0.0,0.0,88,0.00,,,0.00,0,weatherlink.com 1.10,2013-01-13 11:11:00,
2013-01-13 06:26:00,61.9,58.0,30.07,ESE,105,0.0,0.0,88,0.00,,,0.00,0,weatherlink.com 1.10,2013-01-13 11:26:00,
2013-01-13 06:41:00,61.9,58.0,30.08,ESE,105,0.0,0.0,88,0.00,,,0.00,0,weatherlink.com 1.10,2013-01-13 11:41:00,
2013-01-13 06:56:00,61.9,58.0,30.08,ESE,105,0.0,0.0,88,0.00,,,0.00,0,weatherlink.com 1.10,2013-01-13 11:56:00,
2013-01-13 07:11:00,61.9,58.0,30.09,ESE,105,0.0,0.0,88,0.00,,,0.00,0,weatherlink.com 1.10,2013-01-13 12:11:00,
2013-01-13 07:26:00,61.8,58.0,30.09,East,98,0.0,0.0,88,0.00,,,0.00,0,weatherlink.com 1.10,2013-01-13 12:26:00,
2013-01-13 07:41:00,61.8,58.0,30.10,East,98,0.0,0.0,88,0.00,,,0.00,0,weatherlink.com 1.10,2013-01-13 12:41:00,
2013-01-13 07:56:00,61.7,58.0,30.10,East,98,0.0,0.0,88,0.00,,,0.00,0,weatherlink.com 1.10,2013-01-13 12:56:00,
2013-01-13 08:11:00,61.7,58.0,30.11,East,98,0.0,0.0,88,0.00,,,0.00,7,weatherlink.com 1.10,2013-01-13 13:11:00,
2013-01-13 08:26:00,61.7,58.0,30.11,East,98,0.0,0.0,88,0.00,,,0.00,33,weatherlink.com 1.10,2013-01-13 13:26:00,
2013-01-13 08:41:00,61.8,59.0,30.11,ESE,102,0.0,0.0,89,0.00,,,0.00,51,weatherlink.com 1.10,2013-01-13 13:41:00,
2013-01-13 08:56:00,62.3,59.0,30.13,ESE,108,0.0,0.0,88,0.00,,,0.00,23,weatherlink.com 1.10,2013-01-13 13:56:00,
2013-01-13 09:11:00,62.3,59.0,30.13,ESE,113,0.0,1.0,88,0.00,,,0.00,23,weatherlink.com 1.10,2013-01-13 14:11:00,
2013-01-13 09:26:00,62.6,59.0,30.13,ESE,113,0.0,0.0,88,0.00,,,0.00,79,weatherlink.com 1.10,2013-01-13 14:26:00,
2013-01-13 09:41:00,63.2,59.0,30.14,East,101,0.0,0.0,87,0.00,,,0.00,54,weatherlink.com 1.10,2013-01-13 14:41:00,
2013-01-13 09:56:00,63.2,59.0,30.14,SSE,147,0.0,1.0,86,0.00,,,0.00,33,weatherlink.com 1.10,2013-01-13 14:56:00,
2013-01-13 10:11:00,63.2,59.0,30.14,ESE,105,0.0,1.0,86,0.00,,,0.00,49,weatherlink.com 1.10,2013-01-13 15:11:00,
2013-01-13 10:26:00,63.6,59.0,30.13,ESE,117,0.0,0.0,86,0.00,,,0.00,86,weatherlink.com 1.10,2013-01-13 15:26:00,
2013-01-13 10:41:00,64.1,60.0,30.13,ESE,109,1.0,1.0,85,0.00,,,0.00,69,weatherlink.com 1.10,2013-01-13 15:41:00,
2013-01-13 10:56:00,64.3,60.0,30.13,East,96,0.0,2.0,85,0.00,,,0.00,81,weatherlink.com 1.10,2013-01-13 15:56:00,
2013-01-13 11:11:00,64.6,60.0,30.13,SSW,198,0.0,1.0,84,0.00,,,0.00,114,weatherlink.com 1.10,2013-01-13 16:11:00,
2013-01-13 11:26:00,65.0,60.0,30.12,SE,132,0.0,2.0,84,0.00,,,0.00,86,weatherlink.com 1.10,2013-01-13 16:26:00,
2013-01-13 11:41:00,66.0,61.0,30.11,SW,232,0.0,1.0,83,0.00,,,0.00,127,weatherlink.com 1.10,2013-01-13 16:41:00,
2013-01-13 11:56:00,65.7,60.0,30.10,SE,138,0.0,1.0,82,0.00,,,0.00,190,weatherlink.com 1.10,2013-01-13 16:56:00,
2013-01-13 12:11:00,66.7,61.0,30.09,SSE,151,0.0,1.0,81,0.00,,,0.00,246,weatherlink.com 1.10,2013-01-13 17:11:00,
2013-01-13 12:26:00,67.6,61.0,30.07,East,90,1.0,1.0,80,0.00,,,0.00,246,weatherlink.com 1.10,2013-01-13 17:26:00,
2013-01-13 12:41:00,68.0,62.0,30.07,SW,232,2.0,2.0,80,0.00,,,0.00,237,weatherlink.com 1.10,2013-01-13 17:41:00,
2013-01-13 12:56:00,68.9,62.0,30.07,ESE,112,0.0,4.0,78,0.00,,,0.00,200,weatherlink.com 1.10,2013-01-13 17:56:00,
2013-01-13 13:11:00,68.7,62.0,30.06,South,184,0.0,3.0,78,0.00,,,0.00,199,weatherlink.com 1.10,2013-01-13 18:11:00,
2013-01-13 13:26:00,68.8,62.0,30.06,SSE,164,1.0,3.0,78,0.00,,,0.00,135,weatherlink.com 1.10,2013-01-13 18:26:00,
2013-01-13 13:41:00,69.2,61.0,30.05,SSE,152,0.0,6.0,75,0.00,,,0.00,234,weatherlink.com 1.10,2013-01-13 18:41:00,
2013-01-13 13:56:00,70.3,62.0,30.05,SE,146,0.0,3.0,75,0.00,,,0.00,197,weatherlink.com 1.10,2013-01-13 18:56:00,
2013-01-13 14:12:00,69.9,61.0,30.05,ESE,104,0.0,3.0,73,0.00,,,0.00,162,weatherlink.com 1.10,2013-01-13 19:12:00,
2013-01-13 14:27:00,70.1,61.0,30.05,East,96,1.0,4.0,72,0.00,,,0.00,190,weatherlink.com 1.10,2013-01-13 19:27:00,
2013-01-13 14:42:00,70.5,61.0,30.05,SW,229,0.0,3.0,72,0.00,,,0.00,162,weatherlink.com 1.10,2013-01-13 19:42:00,
2013-01-13 14:57:00,69.8,61.0,30.06,SE,140,0.0,3.0,73,0.00,,,0.00,72,weatherlink.com 1.10,2013-01-13 19:57:00,
2013-01-13 15:12:00,70.1,61.0,30.06,South,181,0.0,1.0,73,0.00,,,0.00,116,weatherlink.com 1.10,2013-01-13 20:12:00,
2013-01-13 15:27:00,70.2,62.0,30.05,SE,136,0.0,1.0,74,0.00,,,0.00,130,weatherlink.com 1.10,2013-01-13 20:27:00,
2013-01-13 15:42:00,70.4,61.0,30.05,ESE,109,0.0,1.0,72,0.00,,,0.00,130,weatherlink.com 1.10,2013-01-13 20:42:00,
2013-01-13 15:57:00,71.3,62.0,30.05,South,172,0.0,2.0,72,0.00,,,0.00,86,weatherlink.com 1.10,2013-01-13 20:57:00,
2013-01-13 16:12:00,70.4,61.0,30.05,SSE,163,0.0,2.0,72,0.00,,,0.00,67,weatherlink.com 1.10,2013-01-13 21:12:00,
2013-01-13 16:27:00,70.4,61.0,30.05,SE,140,0.0,1.0,72,0.00,,,0.00,72,weatherlink.com 1.10,2013-01-13 21:27:00,
2013-01-13 16:42:00,70.3,61.0,30.04,SE,126,0.0,2.0,72,0.00,,,0.00,56,weatherlink.com 1.10,2013-01-13 21:42:00,
2013-01-13 16:57:00,70.0,61.0,30.04,SSE,153,0.0,2.0,73,0.00,,,0.00,40,weatherlink.com 1.10,2013-01-13 21:57:00,
2013-01-13 17:12:00,69.7,61.0,30.04,ESE,120,0.0,2.0,73,0.00,,,0.00,23,weatherlink.com 1.10,2013-01-13 22:12:00,
2013-01-13 17:27:00,69.4,60.0,30.04,South,183,0.0,2.0,73,0.00,,,0.00,11,weatherlink.com 1.10,2013-01-13 22:27:00,
2013-01-13 17:42:00,69.3,61.0,30.03,East,98,0.0,5.0,74,0.00,,,0.00,0,weatherlink.com 1.10,2013-01-13 22:42:00,
2013-01-13 17:57:00,69.0,60.0,30.03,South,169,0.0,1.0,74,0.00,,,0.00,0,weatherlink.com 1.10,2013-01-13 22:57:00,
2013-01-13 18:12:00,68.9,61.0,30.03,SE,126,0.0,4.0,75,0.00,,,0.00,0,weatherlink.com 1.10,2013-01-13 23:12:00,
2013-01-13 18:27:00,68.7,61.0,30.03,ESE,103,0.0,2.0,75,0.00,,,0.00,0,weatherlink.com 1.10,2013-01-13 23:27:00,
2013-01-13 18:42:00,68.4,61.0,30.03,SE,130,0.0,2.0,76,0.00,,,0.00,0,weatherlink.com 1.10,2013-01-13 23:42:00,
2013-01-13 18:57:00,68.3,61.0,30.03,SSE,157,0.0,3.0,77,0.00,,,0.00,0,weatherlink.com 1.10,2013-01-13 23:57:00,
2013-01-13 19:12:00,68.1,61.0,30.03,SSE,155,0.0,2.0,77,0.00,,,0.00,0,weatherlink.com 1.10,2013-01-14 00:12:00,
2013-01-13 19:27:00,68.0,61.0,30.03,SSE,149,0.0,1.0,77,0.00,,,0.00,0,weatherlink.com 1.10,2013-01-14 00:27:00,
2013-01-13 19:42:00,67.9,60.0,30.04,SE,140,0.0,2.0,77,0.00,,,0.00,0,weatherlink.com 1.10,2013-01-14 00:42:00,
2013-01-13 19:57:00,67.8,61.0,30.04,South,184,0.0,1.0,78,0.00,,,0.00,0,weatherlink.com 1.10,2013-01-14 00:57:00,
2013-01-13 20:12:00,67.8,61.0,30.04,ESE,107,0.0,2.0,78,0.00,,,0.00,0,weatherlink.com 1.10,2013-01-14 01:12:00,
2013-01-13 20:27:00,67.7,61.0,30.03,SSE,163,0.0,3.0,78,0.00,,,0.00,0,weatherlink.com 1.10,2013-01-14 01:27:00,
2013-01-13 20:42:00,67.6,61.0,30.04,South,169,0.0,1.0,79,0.00,,,0.00,0,weatherlink.com 1.10,2013-01-14 01:42:00,
2013-01-13 20:57:00,67.6,61.0,30.04,SE,131,0.0,2.0,79,0.00,,,0.00,0,weatherlink.com 1.10,2013-01-14 01:57:00,
2013-01-13 21:12:00,67.6,61.0,30.04,SSE,165,0.0,3.0,79,0.00,,,0.00,0,weatherlink.com 1.10,2013-01-14 02:12:00,
2013-01-13 21:27:00,67.7,61.0,30.03,SSE,164,1.0,4.0,79,0.00,,,0.00,0,weatherlink.com 1.10,2013-01-14 02:27:00,
2013-01-13 21:42:00,67.7,61.0,30.03,South,169,0.0,2.0,79,0.00,,,0.00,0,weatherlink.com 1.10,2013-01-14 02:42:00,
2013-01-13 21:57:00,67.7,61.0,30.03,SSE,155,1.0,3.0,79,0.00,,,0.00,0,weatherlink.com 1.10,2013-01-14 02:57:00,
2013-01-13 22:12:00,67.6,61.0,30.03,SSE,150,0.0,2.0,79,0.00,,,0.00,0,weatherlink.com 1.10,2013-01-14 03:12:00,
2013-01-13 22:27:00,67.5,61.0,30.04,South,170,0.0,3.0,79,0.00,,,0.00,0,weatherlink.com 1.10,2013-01-14 03:27:00,
2013-01-13 22:42:00,66.8,62.0,30.04,SSE,153,0.0,3.0,83,0.01,,,0.01,0,weatherlink.com 1.10,2013-01-14 03:42:00,
2013-01-13 22:57:00,66.2,61.0,30.04,SSE,150,0.0,0.0,84,0.01,,,0.01,0,weatherlink.com 1.10,2013-01-14 03:57:00,
2013-01-13 23:12:00,65.5,61.0,30.05,SSE,147,0.0,2.0,85,0.01,,,0.01,0,weatherlink.com 1.10,2013-01-14 04:12:00,
2013-01-13 23:27:00,65.2,61.0,30.05,SSE,150,0.0,3.0,85,0.01,,,0.01,0,weatherlink.com 1.10,2013-01-14 04:27:00,
2013-01-13 23:42:00,65.1,61.0,30.05,SSE,158,0.0,4.0,85,0.01,,,0.02,0,weatherlink.com 1.10,2013-01-14 04:42:00,
2013-01-13 23:57:00,64.9,61.0,30.06,South,181,0.0,3.0,86,0.02,,,0.03,0,weatherlink.com 1.10,2013-01-14 04:57:00,